Terminal Aerodrome Forecast
Issued by NWS

Home | Current Version | Previous Version | Text Only | Print | Product List | Glossary On
Versions: 1 2 3 4 5 6 7 8 9 10 11 12 13 14 15 16 17 18 19 20 21 22 23 24 25 26 27 28
000
FTAK31 PANC 231740
TAFATK
TAF
PATK 231740Z 2318/2418 03010KT P6SM VCSH OVC035
      TEMPO 2318/2320 1SM -SHSN BKN025
     FM241200 36004KT 5SM -SN OVC025=

USA.gov is the U.S. government's official web portal to all federal, state and local government web resources and services.